createdAt,value
2024-05-09T00:00:58.853Z,72.67
2024-05-09T00:01:58.944Z,72.75
2024-05-09T00:02:58.977Z,72.50
2024-05-09T00:03:59.117Z,72.58
2024-05-09T00:04:59.287Z,72.74
2024-05-09T00:05:59.254Z,72.77
2024-05-09T00:06:59.185Z,72.73
2024-05-09T00:07:59.258Z,72.76
2024-05-09T00:08:59.337Z,72.95
2024-05-09T00:09:59.397Z,72.96
2024-05-09T00:10:59.592Z,72.95
2024-05-09T00:11:59.703Z,72.78
2024-05-09T00:12:59.641Z,73.03
2024-05-09T00:13:59.746Z,73.12
2024-05-09T00:14:59.732Z,73.09
2024-05-09T00:15:59.743Z,72.91
2024-05-09T00:16:59.808Z,72.64
2024-05-09T00:17:59.966Z,72.54
2024-05-09T00:18:59.969Z,72.34
2024-05-09T00:19:59.991Z,72.49
2024-05-09T00:21:00.144Z,72.59
2024-05-09T00:22:00.084Z,72.48
2024-05-09T00:23:00.135Z,72.42
2024-05-09T00:24:00.194Z,72.03
2024-05-09T00:25:00.233Z,72.18
2024-05-09T00:26:00.393Z,72.46
2024-05-09T00:27:00.376Z,72.47
2024-05-09T00:28:00.448Z,72.31
2024-05-09T00:29:00.500Z,72.29
2024-05-09T00:30:00.555Z,72.32
2024-05-09T00:31:00.621Z,72.49
2024-05-09T00:32:00.841Z,72.83
2024-05-09T00:33:01.043Z,73.00
2024-05-09T00:34:01.072Z,73.00
2024-05-09T00:35:00.836Z,72.91
2024-05-09T00:36:00.872Z,72.65
2024-05-09T00:37:00.894Z,72.40
2024-05-09T00:38:01.328Z,72.36
2024-05-09T00:39:00.934Z,72.54
2024-05-09T00:40:00.975Z,72.79
2024-05-09T00:41:01.175Z,72.65
2024-05-09T00:42:01.014Z,72.55
2024-05-09T00:43:01.019Z,72.61
2024-05-09T00:44:01.113Z,72.66
2024-05-09T00:45:01.083Z,72.82
2024-05-09T00:46:01.121Z,73.35
2024-05-09T00:47:01.195Z,73.41
2024-05-09T00:48:01.761Z,73.09
2024-05-09T00:49:01.308Z,73.26
2024-05-09T00:50:01.387Z,73.52
2024-05-09T00:51:01.360Z,73.20
2024-05-09T00:52:01.400Z,73.15
2024-05-09T00:53:01.543Z,73.20
2024-05-09T00:54:01.579Z,73.17
2024-05-09T00:55:01.633Z,73.07
2024-05-09T00:56:01.746Z,73.16
2024-05-09T00:57:01.765Z,73.32
2024-05-09T00:58:01.798Z,73.15
2024-05-09T00:59:01.899Z,73.08
2024-05-09T01:00:01.959Z,72.99
2024-05-09T01:01:02.090Z,72.74
2024-05-09T01:02:02.179Z,72.80
2024-05-09T01:03:02.426Z,73.28
2024-05-09T01:04:02.300Z,73.40
2024-05-09T01:05:02.424Z,73.39
2024-05-09T01:06:02.366Z,73.33
2024-05-09T01:07:02.403Z,72.98
2024-05-09T01:08:02.670Z,72.86
2024-05-09T01:09:02.484Z,72.78
2024-05-09T01:10:03.241Z,72.95
2024-05-09T01:11:02.663Z,72.82
2024-05-09T01:12:02.858Z,73.00
2024-05-09T01:13:02.757Z,73.05
2024-05-09T01:14:02.772Z,72.96
2024-05-09T01:15:02.813Z,73.01
2024-05-09T01:16:02.896Z,73.18
2024-05-09T01:17:03.002Z,72.94
2024-05-09T01:18:03.258Z,72.69
2024-05-09T01:20:04.223Z,72.37
2024-05-09T01:21:03.174Z,72.38
2024-05-09T01:22:03.191Z,72.54
2024-05-09T01:23:03.237Z,72.71
2024-05-09T01:24:03.229Z,72.79
2024-05-09T01:25:03.232Z,72.83
2024-05-09T01:26:03.293Z,72.56
2024-05-09T01:27:03.328Z,72.71
2024-05-09T01:28:03.312Z,72.95
2024-05-09T01:29:03.336Z,72.95
2024-05-09T01:30:07.046Z,72.79
2024-05-09T01:31:04.355Z,72.71
2024-05-09T01:32:03.472Z,72.52
2024-05-09T01:33:03.792Z,72.30
2024-05-09T01:34:03.441Z,72.26
2024-05-09T01:35:03.497Z,72.11
2024-05-09T01:36:03.512Z,72.05
2024-05-09T01:37:03.528Z,72.46
2024-05-09T01:38:03.749Z,72.51
2024-05-09T01:39:03.624Z,72.33
2024-05-09T01:40:03.749Z,72.40
2024-05-09T01:41:03.690Z,72.29
2024-05-09T01:42:03.702Z,72.17
2024-05-09T01:43:03.735Z,72.01
2024-05-09T01:44:03.797Z,72.06
2024-05-09T01:45:03.810Z,72.12
2024-05-09T01:46:03.836Z,72.31
2024-05-09T01:47:03.947Z,72.33
2024-05-09T01:48:04.226Z,72.43
2024-05-09T01:49:04.083Z,72.54
2024-05-09T01:50:06.663Z,72.69
2024-05-09T01:51:04.008Z,72.65
2024-05-09T01:52:04.061Z,72.57
2024-05-09T01:53:04.144Z,72.53
2024-05-09T01:54:04.111Z,72.33
2024-05-09T01:55:06.436Z,72.10
2024-05-09T01:56:04.439Z,71.86
2024-05-09T01:57:04.438Z,71.76
2024-05-09T01:58:04.542Z,71.76
2024-05-09T01:59:04.562Z,71.85
2024-05-09T02:00:06.041Z,71.80
2024-05-09T02:01:04.661Z,71.75
2024-05-09T02:02:04.768Z,71.85
2024-05-09T02:03:04.911Z,71.80
2024-05-09T02:04:04.930Z,71.76
2024-05-09T02:05:04.893Z,71.84
2024-05-09T02:06:04.986Z,72.00
2024-05-09T02:07:04.842Z,71.77
2024-05-09T02:08:04.897Z,71.54
2024-05-09T02:09:04.867Z,71.89
2024-05-09T02:10:10.957Z,72.11
2024-05-09T02:11:05.954Z,72.51
2024-05-09T02:12:05.011Z,72.30
2024-05-09T02:13:04.946Z,72.19
2024-05-09T02:14:05.033Z,72.17
2024-05-09T02:15:05.004Z,72.44
2024-05-09T02:16:05.015Z,72.58
2024-05-09T02:17:05.110Z,72.59
2024-05-09T02:18:05.301Z,72.58
2024-05-09T02:19:05.563Z,72.47
2024-05-09T02:20:06.162Z,72.47
2024-05-09T02:21:05.335Z,72.49
2024-05-09T02:22:05.174Z,72.83
2024-05-09T02:23:05.577Z,73.07
2024-05-09T02:24:05.232Z,73.17
2024-05-09T02:25:05.252Z,73.16
2024-05-09T02:26:05.313Z,73.06
2024-05-09T02:27:05.314Z,73.07
2024-05-09T02:28:05.389Z,73.00
2024-05-09T02:29:05.432Z,72.63
2024-05-09T02:30:12.242Z,72.53
2024-05-09T02:31:06.467Z,72.69
2024-05-09T02:32:05.573Z,72.77
2024-05-09T02:33:05.712Z,72.73
2024-05-09T02:34:05.663Z,72.77
2024-05-09T02:35:05.603Z,72.62
2024-05-09T02:36:05.575Z,72.47
2024-05-09T02:37:05.654Z,72.42
2024-05-09T02:38:05.769Z,72.37
2024-05-09T02:39:05.665Z,72.38
2024-05-09T02:40:07.095Z,72.34
2024-05-09T02:41:05.782Z,72.16
2024-05-09T02:42:05.753Z,71.88
2024-05-09T02:43:06.002Z,71.79
2024-05-09T02:44:05.880Z,71.72
2024-05-09T02:45:05.814Z,71.50
2024-05-09T02:46:05.822Z,71.59
2024-05-09T02:47:05.982Z,71.59
2024-05-09T02:48:06.215Z,71.52
2024-05-09T02:49:06.102Z,71.43
2024-05-09T02:50:07.864Z,71.42
2024-05-09T02:51:06.030Z,71.53
2024-05-09T02:52:05.937Z,71.63
2024-05-09T02:53:06.264Z,71.80
2024-05-09T02:54:05.980Z,71.55
2024-05-09T02:55:06.009Z,71.90
2024-05-09T02:56:06.066Z,72.17
2024-05-09T02:57:06.192Z,72.44
2024-05-09T02:58:06.068Z,72.37
2024-05-09T02:59:06.141Z,72.29
2024-05-09T03:00:09.694Z,72.22
2024-05-09T03:01:07.214Z,72.26
2024-05-09T03:02:06.300Z,72.12
2024-05-09T03:03:06.755Z,71.88
2024-05-09T03:04:06.492Z,71.85
2024-05-09T03:05:06.350Z,71.84
2024-05-09T03:06:06.290Z,71.91
2024-05-09T03:07:06.434Z,71.81
2024-05-09T03:08:06.427Z,71.72
2024-05-09T03:09:06.352Z,71.90
2024-05-09T03:10:12.185Z,71.97
2024-05-09T03:11:07.533Z,71.69
2024-05-09T03:12:39.031Z,71.59
2024-05-09T03:13:36.896Z,71.57
2024-05-09T03:14:36.964Z,71.41
2024-05-09T03:15:37.122Z,71.39
2024-05-09T03:16:37.018Z,71.16
2024-05-09T03:17:37.241Z,71.19
2024-05-09T03:18:37.242Z,71.57
2024-05-09T03:19:37.248Z,71.93
2024-05-09T03:20:37.468Z,71.98
2024-05-09T03:21:37.252Z,71.96
2024-05-09T03:22:37.295Z,71.90
2024-05-09T03:23:37.304Z,71.74
2024-05-09T03:24:37.316Z,71.58
2024-05-09T03:25:37.317Z,71.51
2024-05-09T03:26:37.399Z,71.34
2024-05-09T03:27:37.315Z,71.46
2024-05-09T03:28:37.308Z,71.46
2024-05-09T03:29:37.373Z,71.44
2024-05-09T03:30:41.834Z,71.52
2024-05-09T03:31:38.368Z,71.50
2024-05-09T03:32:37.420Z,71.23
2024-05-09T03:33:37.694Z,71.07
2024-05-09T03:34:37.332Z,71.06
2024-05-09T03:35:37.375Z,70.96
2024-05-09T03:36:37.367Z,71.06
2024-05-09T03:37:37.346Z,71.20
2024-05-09T03:38:37.448Z,71.22
2024-05-09T03:39:37.338Z,71.35
2024-05-09T03:40:37.315Z,71.32
2024-05-09T03:41:37.395Z,71.33
2024-05-09T03:42:37.338Z,71.30
2024-05-09T03:43:37.357Z,71.29
2024-05-09T03:44:37.464Z,71.22
2024-05-09T03:45:37.459Z,71.19
2024-05-09T03:46:37.513Z,71.12
2024-05-09T03:47:37.608Z,71.46
2024-05-09T03:48:37.597Z,71.54
2024-05-09T03:49:37.614Z,71.58
2024-05-09T03:50:38.057Z,71.69
2024-05-09T03:51:37.677Z,71.84
2024-05-09T03:52:37.713Z,71.73
2024-05-09T03:53:37.803Z,71.60
2024-05-09T03:54:37.859Z,71.38
2024-05-09T03:55:37.901Z,71.39
2024-05-09T03:56:38.062Z,71.74
2024-05-09T03:57:37.983Z,72.10
2024-05-09T03:58:38.064Z,72.23
2024-05-09T03:59:38.128Z,72.42
2024-05-09T04:00:39.770Z,72.42
2024-05-09T04:01:38.292Z,72.39
2024-05-09T04:02:38.420Z,72.50
2024-05-09T04:03:38.475Z,72.27
2024-05-09T04:04:38.467Z,71.96
2024-05-09T04:05:38.603Z,72.00
2024-05-09T04:06:38.515Z,71.98
2024-05-09T04:07:38.575Z,72.05
2024-05-09T04:08:38.698Z,72.22
2024-05-09T04:09:38.656Z,72.41
2024-05-09T04:10:38.706Z,72.56
2024-05-09T04:11:38.889Z,72.43
2024-05-09T04:12:38.817Z,72.25
2024-05-09T04:13:38.762Z,72.12
2024-05-09T04:14:38.941Z,72.02
2024-05-09T04:15:38.887Z,71.74
2024-05-09T04:16:38.874Z,71.41
2024-05-09T04:17:38.958Z,71.05
2024-05-09T04:18:38.904Z,70.95
2024-05-09T04:19:38.902Z,70.70
2024-05-09T04:20:40.855Z,70.55
2024-05-09T04:21:39.014Z,70.50
2024-05-09T04:22:39.052Z,70.40
2024-05-09T04:23:39.192Z,70.44
2024-05-09T04:24:39.137Z,70.64
2024-05-09T04:25:39.128Z,70.80
2024-05-09T04:26:39.241Z,70.64
2024-05-09T04:27:39.179Z,70.41
2024-05-09T04:28:39.240Z,70.23
2024-05-09T04:29:39.275Z,70.66
2024-05-09T04:30:41.319Z,71.03
2024-05-09T04:31:39.293Z,71.09
2024-05-09T04:32:39.387Z,70.88
2024-05-09T04:33:39.391Z,70.49
2024-05-09T04:34:46.938Z,70.55
2024-05-09T04:35:46.952Z,70.36
2024-05-09T04:36:46.908Z,70.18
2024-05-09T04:37:47.004Z,69.97
2024-05-09T04:38:46.958Z,70.59
2024-05-09T04:39:46.938Z,70.59
2024-05-09T04:40:46.946Z,70.58
2024-05-09T04:41:46.916Z,70.63
2024-05-09T04:42:46.914Z,70.82
2024-05-09T04:43:46.972Z,70.90
2024-05-09T04:44:46.908Z,71.23
2024-05-09T04:45:46.911Z,71.56
2024-05-09T04:46:47.007Z,71.55
2024-05-09T04:47:47.074Z,71.25
2024-05-09T04:48:47.070Z,71.66
2024-05-09T04:49:47.007Z,71.97
2024-05-09T04:50:47.075Z,71.83
2024-05-09T04:51:46.970Z,71.53
2024-05-09T04:52:47.017Z,71.42
2024-05-09T04:53:47.063Z,70.82
2024-05-09T04:54:46.997Z,70.85
2024-05-09T04:55:47.028Z,70.99
2024-05-09T04:56:47.020Z,70.80
2024-05-09T04:57:46.997Z,70.64
2024-05-09T04:58:47.062Z,70.72
2024-05-09T04:59:46.996Z,70.94
2024-05-09T05:00:47.073Z,70.93
2024-05-09T05:01:47.046Z,70.87
2024-05-09T05:02:47.064Z,71.04
2024-05-09T05:03:47.133Z,71.01
2024-05-09T05:04:47.130Z,70.94
2024-05-09T05:05:47.090Z,70.83
2024-05-09T05:06:46.968Z,70.68
2024-05-09T05:07:47.079Z,71.31
2024-05-09T05:08:47.033Z,71.74
2024-05-09T05:09:47.043Z,71.34
2024-05-09T05:10:48.122Z,71.25
2024-05-09T05:11:47.210Z,71.42
2024-05-09T05:12:47.194Z,71.68
2024-05-09T05:13:47.309Z,71.64
2024-05-09T05:14:47.217Z,71.74
2024-05-09T05:15:47.305Z,71.95
2024-05-09T05:16:47.278Z,71.92
2024-05-09T05:17:47.568Z,71.74
2024-05-09T05:18:47.366Z,71.44
2024-05-09T05:19:47.421Z,71.49
2024-05-09T05:20:47.356Z,71.74
2024-05-09T05:21:47.262Z,71.54
2024-05-09T05:22:47.309Z,71.45
2024-05-09T05:23:47.346Z,71.40
2024-05-09T05:24:47.277Z,71.60
2024-05-09T05:25:47.337Z,71.48
2024-05-09T05:26:47.323Z,71.37
2024-05-09T05:27:47.282Z,71.30
2024-05-09T05:28:47.336Z,71.24
2024-05-09T05:29:47.379Z,71.06
2024-05-09T05:30:47.359Z,70.72
2024-05-09T05:31:47.525Z,70.56
2024-05-09T05:32:47.564Z,70.69
2024-05-09T05:33:47.573Z,70.88
2024-05-09T05:34:47.570Z,70.84
2024-05-09T05:35:47.781Z,70.60
2024-05-09T05:36:47.557Z,70.02
2024-05-09T05:37:47.640Z,69.79
2024-05-09T05:38:47.720Z,69.51
2024-05-09T05:39:47.650Z,69.75
2024-05-09T05:40:47.734Z,69.93
2024-05-09T05:41:47.763Z,70.06
2024-05-09T05:42:47.844Z,69.87
2024-05-09T05:43:47.929Z,69.42
2024-05-09T05:44:47.932Z,68.88
2024-05-09T05:45:47.985Z,69.23
2024-05-09T05:46:48.067Z,69.52
2024-05-09T05:47:48.431Z,69.29
2024-05-09T05:48:48.206Z,68.97
2024-05-09T05:49:49.036Z,69.15
2024-05-09T05:50:48.375Z,69.25
2024-05-09T05:51:48.242Z,69.14
2024-05-09T05:52:48.355Z,69.06
2024-05-09T05:53:48.391Z,69.36
2024-05-09T05:54:48.394Z,70.36
2024-05-09T05:55:48.494Z,70.38
2024-05-09T05:56:48.492Z,70.05
2024-05-09T05:57:48.517Z,70.07
2024-05-09T05:58:48.613Z,70.16
2024-05-09T05:59:48.640Z,70.40
2024-05-09T06:00:49.583Z,70.53
2024-05-09T06:01:49.620Z,70.32
2024-05-09T06:02:48.953Z,70.32
2024-05-09T06:03:49.084Z,70.35
2024-05-09T06:04:48.966Z,70.32
2024-05-09T06:05:49.037Z,70.23
2024-05-09T06:06:49.001Z,70.92
2024-05-09T06:07:49.056Z,71.22
2024-05-09T06:08:49.084Z,71.00
2024-05-09T06:09:50.528Z,70.60
2024-05-09T06:10:49.243Z,70.06
2024-05-09T06:11:49.193Z,69.66
2024-05-09T06:12:49.142Z,69.23
2024-05-09T06:13:49.208Z,68.38
2024-05-09T06:14:49.134Z,68.19
2024-05-09T06:15:49.173Z,67.73
2024-05-09T06:16:49.146Z,67.15
2024-05-09T06:17:49.246Z,67.23
2024-05-09T06:18:49.368Z,66.46
2024-05-09T06:19:49.407Z,66.23
2024-05-09T06:20:49.208Z,65.82
2024-05-09T06:21:49.186Z,65.43
2024-05-09T06:22:49.176Z,65.76
2024-05-09T06:23:49.163Z,65.74
2024-05-09T06:24:49.186Z,65.45
2024-05-09T06:25:49.231Z,65.56
2024-05-09T06:26:49.156Z,65.49
2024-05-09T06:27:49.164Z,65.23
2024-05-09T06:28:49.224Z,64.85
2024-05-09T06:29:49.155Z,65.23
2024-05-09T06:30:49.161Z,65.41
2024-05-09T06:31:49.167Z,65.24
2024-05-09T06:32:49.737Z,64.88
2024-05-09T06:33:49.467Z,64.81
2024-05-09T06:34:49.338Z,65.32
2024-05-09T06:35:49.359Z,64.63
2024-05-09T06:36:49.362Z,64.22
2024-05-09T06:37:49.441Z,63.89
2024-05-09T06:38:49.466Z,63.73
2024-05-09T06:39:49.459Z,63.38
2024-05-09T06:40:49.575Z,63.11
2024-05-09T06:41:49.526Z,63.23
2024-05-09T06:42:49.598Z,63.03
2024-05-09T06:43:49.686Z,63.34
2024-05-09T06:44:49.629Z,63.90
2024-05-09T06:45:49.693Z,63.35
2024-05-09T06:46:49.677Z,62.75
2024-05-09T06:47:49.714Z,62.20
2024-05-09T06:48:49.900Z,61.22
2024-05-09T06:49:49.652Z,61.72
2024-05-09T06:50:49.761Z,61.25
2024-05-09T06:51:49.634Z,61.15
2024-05-09T06:52:49.610Z,60.21
2024-05-09T06:53:49.567Z,58.58
2024-05-09T06:54:49.534Z,58.31
2024-05-09T06:55:49.753Z,57.51
2024-05-09T06:56:49.521Z,56.03
2024-05-09T06:57:49.536Z,56.78
2024-05-09T06:58:49.562Z,57.78
2024-05-09T06:59:49.558Z,57.60
2024-05-09T07:00:49.660Z,56.77
2024-05-09T07:01:49.625Z,55.65
2024-05-09T07:02:49.874Z,55.22
2024-05-09T07:03:49.609Z,54.65
2024-05-09T07:04:49.657Z,53.38
2024-05-09T07:05:50.072Z,53.67
2024-05-09T07:06:49.560Z,53.29
2024-05-09T07:07:49.615Z,54.26
2024-05-09T07:08:51.921Z,55.69
2024-05-09T07:09:49.516Z,55.87
2024-05-09T07:10:49.555Z,55.47
2024-05-09T07:11:49.640Z,54.69
2024-05-09T07:12:49.418Z,54.60
2024-05-09T07:13:49.408Z,55.55
2024-05-09T07:14:49.388Z,55.93
2024-05-09T07:15:49.324Z,55.89
2024-05-09T07:16:49.422Z,56.22
2024-05-09T07:17:49.447Z,57.08
2024-05-09T07:18:49.486Z,57.48
2024-05-09T07:19:49.355Z,57.56
2024-05-09T07:20:50.265Z,57.70
2024-05-09T07:21:49.172Z,57.06
2024-05-09T07:22:49.147Z,56.51
2024-05-09T07:23:49.300Z,56.46
2024-05-09T07:24:49.036Z,56.55
2024-05-09T07:25:49.078Z,56.55
2024-05-09T07:26:49.027Z,56.06
2024-05-09T07:27:48.934Z,56.06
2024-05-09T07:28:48.983Z,55.79
2024-05-09T07:29:48.842Z,55.18
2024-05-09T07:30:48.797Z,55.04
2024-05-09T07:31:49.583Z,55.31
2024-05-09T07:32:48.926Z,54.41
2024-05-09T07:33:48.613Z,52.93
2024-05-09T07:34:48.581Z,53.05
2024-05-09T07:35:48.534Z,53.67
2024-05-09T07:36:49.090Z,54.80
2024-05-09T07:37:48.419Z,53.51
2024-05-09T07:38:48.352Z,52.57
2024-05-09T07:39:48.228Z,52.99
2024-05-09T07:40:48.182Z,53.20
2024-05-09T07:41:48.131Z,55.26
2024-05-09T07:42:48.131Z,53.99
2024-05-09T07:43:48.141Z,53.80
2024-05-09T07:44:48.064Z,54.37
2024-05-09T07:45:53.144Z,54.21
2024-05-09T07:47:48.797Z,54.47
2024-05-09T07:49:13.622Z,54.53
2024-05-09T07:53:17.152Z,54.63
2024-05-09T07:53:34.804Z,56.07
2024-05-09T07:53:52.017Z,56.11
2024-05-09T07:54:48.849Z,56.07
2024-05-09T07:55:47.763Z,56.34
2024-05-09T07:56:47.754Z,56.23
2024-05-09T07:57:47.882Z,56.16
2024-05-09T07:58:47.479Z,56.69
2024-05-09T07:59:47.430Z,56.29
2024-05-09T08:00:47.508Z,56.39
2024-05-09T08:01:47.561Z,57.51
2024-05-09T08:02:47.392Z,56.63
2024-05-09T08:03:47.534Z,55.76
2024-05-09T08:04:47.308Z,55.37
2024-05-09T08:05:47.267Z,55.11
2024-05-09T08:06:47.181Z,55.10
2024-05-09T08:07:47.144Z,54.54
2024-05-09T08:08:47.085Z,55.92
2024-05-09T08:09:47.056Z,55.25
2024-05-09T08:10:47.079Z,55.02
2024-05-09T08:11:46.957Z,54.98
2024-05-09T08:12:46.921Z,54.92
2024-05-09T08:13:46.840Z,55.48
2024-05-09T08:14:46.781Z,56.42
2024-05-09T08:15:46.875Z,55.81
2024-05-09T08:16:46.717Z,56.44
2024-05-09T08:17:46.698Z,57.05
2024-05-09T08:18:46.693Z,55.37
2024-05-09T08:19:46.643Z,55.14
2024-05-09T08:20:46.530Z,55.31
2024-05-09T08:21:46.546Z,55.60
2024-05-09T08:22:46.424Z,54.40
2024-05-09T08:23:46.384Z,53.88
2024-05-09T08:24:46.344Z,53.32
2024-05-09T08:25:46.280Z,52.21
2024-05-09T08:26:46.249Z,52.06
2024-05-09T08:27:46.305Z,51.46
2024-05-09T08:28:46.314Z,51.95
2024-05-09T08:29:46.348Z,52.33
2024-05-09T08:30:46.510Z,53.52
2024-05-09T08:31:46.337Z,53.95
2024-05-09T08:32:46.400Z,54.61
2024-05-09T08:33:46.604Z,54.15
2024-05-09T08:34:46.349Z,54.08
2024-05-09T08:35:46.296Z,54.28
2024-05-09T08:36:46.305Z,54.93
2024-05-09T08:37:46.401Z,55.60
2024-05-09T08:38:46.307Z,54.54
2024-05-09T08:39:46.325Z,54.27
2024-05-09T08:40:46.388Z,55.16
2024-05-09T08:41:46.368Z,55.32
2024-05-09T08:42:46.434Z,54.44
2024-05-09T08:43:46.362Z,54.46
2024-05-09T08:44:46.318Z,53.98
2024-05-09T08:45:46.353Z,53.61
2024-05-09T08:46:46.263Z,54.82
2024-05-09T08:47:46.392Z,54.48
2024-05-09T08:48:46.354Z,55.20
2024-05-09T08:49:46.371Z,55.64
2024-05-09T08:50:46.301Z,55.13
2024-05-09T08:51:46.222Z,54.74
2024-05-09T08:52:46.199Z,54.14
2024-05-09T08:53:46.197Z,53.11
2024-05-09T08:54:46.170Z,52.88
2024-05-09T08:55:46.124Z,52.24
2024-05-09T08:56:46.066Z,53.02
2024-05-09T08:57:46.135Z,52.95
2024-05-09T08:58:46.032Z,53.14
2024-05-09T08:59:46.001Z,52.93
2024-05-09T09:00:46.455Z,53.11
2024-05-09T09:01:46.135Z,52.75
2024-05-09T09:02:45.978Z,52.44
2024-05-09T09:03:46.214Z,51.62
2024-05-09T09:04:45.998Z,51.32
2024-05-09T09:05:45.888Z,51.30
2024-05-09T09:06:45.958Z,51.78
2024-05-09T09:07:45.872Z,51.16
2024-05-09T09:08:46.576Z,51.35
2024-05-09T09:09:45.837Z,51.48
2024-05-09T09:10:45.878Z,51.40
2024-05-09T09:11:45.848Z,50.60
2024-05-09T09:12:45.872Z,49.88
2024-05-09T09:13:45.721Z,49.17
2024-05-09T09:14:45.722Z,48.83
2024-05-09T09:15:45.748Z,49.46
2024-05-09T09:16:45.693Z,50.37
2024-05-09T09:17:45.775Z,50.63
2024-05-09T09:18:45.793Z,50.69
2024-05-09T09:19:45.793Z,50.93
2024-05-09T09:20:45.794Z,51.83
2024-05-09T09:21:45.682Z,51.35
2024-05-09T09:22:45.605Z,50.36
2024-05-09T09:23:45.606Z,51.09
2024-05-09T09:24:45.603Z,50.76
2024-05-09T09:25:45.594Z,50.03
2024-05-09T09:26:45.527Z,49.91
2024-05-09T09:27:45.540Z,49.54
2024-05-09T09:28:45.500Z,50.18
2024-05-09T09:29:45.444Z,49.42
2024-05-09T09:30:45.453Z,50.02
2024-05-09T09:31:45.401Z,49.09
2024-05-09T09:32:45.438Z,48.12
2024-05-09T09:33:45.524Z,48.03
2024-05-09T09:34:45.486Z,48.91
2024-05-09T09:35:45.317Z,49.83
2024-05-09T09:36:45.327Z,50.23
2024-05-09T09:37:45.312Z,49.87
2024-05-09T09:38:45.290Z,50.19
2024-05-09T09:39:49.043Z,50.17
2024-05-09T09:40:49.135Z,49.34
2024-05-09T09:41:45.162Z,49.54
2024-05-09T09:42:45.144Z,49.02
2024-05-09T09:43:45.027Z,48.98
2024-05-09T09:44:48.010Z,48.72
2024-05-09T09:45:45.937Z,49.62
2024-05-09T09:46:44.787Z,48.59
2024-05-09T09:47:44.936Z,48.28
2024-05-09T09:48:44.803Z,47.95
2024-05-09T09:49:44.613Z,47.54
2024-05-09T09:50:44.501Z,47.49
2024-05-09T09:51:44.432Z,47.41
2024-05-09T09:52:44.394Z,47.63
2024-05-09T09:53:44.322Z,47.38
2024-05-09T09:54:44.307Z,47.09
2024-05-09T09:55:44.209Z,45.79
2024-05-09T09:56:44.126Z,45.93
2024-05-09T09:57:44.115Z,46.45
2024-05-09T09:58:44.019Z,47.06
2024-05-09T09:59:43.945Z,48.01
2024-05-09T10:00:44.078Z,46.88
2024-05-09T10:01:43.931Z,47.95
2024-05-09T10:02:43.771Z,48.17
2024-05-09T10:03:43.742Z,47.79
2024-05-09T10:04:43.713Z,48.47
2024-05-09T10:05:46.307Z,49.19
2024-05-09T10:06:43.484Z,49.64
2024-05-09T10:07:43.403Z,49.07
2024-05-09T10:08:43.353Z,49.15
2024-05-09T10:09:43.303Z,47.81
2024-05-09T10:10:43.382Z,47.32
2024-05-09T10:11:49.055Z,46.77
2024-05-09T10:12:44.102Z,46.70
2024-05-09T10:13:43.017Z,46.65
2024-05-09T10:14:42.984Z,46.72
2024-05-09T10:15:42.999Z,47.08
2024-05-09T10:16:42.833Z,47.02
2024-05-09T10:17:42.816Z,46.64
2024-05-09T10:18:42.828Z,46.37
2024-05-09T10:19:42.611Z,46.42
2024-05-09T10:20:42.566Z,47.02
2024-05-09T10:21:42.481Z,46.66
2024-05-09T10:22:42.392Z,46.62
2024-05-09T10:23:42.327Z,46.57
2024-05-09T10:24:42.257Z,46.78
2024-05-09T10:25:42.162Z,46.59
2024-05-09T10:26:42.149Z,47.24
2024-05-09T10:27:42.117Z,46.65
2024-05-09T10:28:42.036Z,46.16
2024-05-09T10:29:41.982Z,46.01
2024-05-09T10:30:43.198Z,44.98
2024-05-09T10:31:42.108Z,45.01
2024-05-09T10:32:42.026Z,44.80
2024-05-09T10:33:42.203Z,44.75
2024-05-09T10:34:41.801Z,43.16
2024-05-09T10:35:41.738Z,42.19
2024-05-09T10:36:41.760Z,42.60
2024-05-09T10:37:41.685Z,43.47
2024-05-09T10:38:41.651Z,44.11
2024-05-09T10:39:41.637Z,43.94
2024-05-09T10:40:41.614Z,43.96
2024-05-09T10:41:41.541Z,44.48
2024-05-09T10:42:41.505Z,43.32
2024-05-09T10:43:41.532Z,41.98
2024-05-09T10:44:41.339Z,41.32
2024-05-09T10:45:41.356Z,41.00
2024-05-09T10:46:41.230Z,39.47
2024-05-09T10:47:41.236Z,38.60
2024-05-09T10:48:41.179Z,40.34
2024-05-09T10:49:41.139Z,40.75
2024-05-09T10:50:41.035Z,40.57
2024-05-09T10:51:41.063Z,40.01
2024-05-09T10:52:41.036Z,41.31
2024-05-09T10:53:40.963Z,42.01
2024-05-09T10:54:40.955Z,42.56
2024-05-09T10:55:40.882Z,43.47
2024-05-09T10:56:40.813Z,43.20
2024-05-09T10:57:40.860Z,44.22
2024-05-09T10:58:41.147Z,44.90
2024-05-09T10:59:40.666Z,46.03
2024-05-09T11:00:40.734Z,45.50
2024-05-09T11:01:40.686Z,45.52
2024-05-09T11:02:40.762Z,45.43
2024-05-09T11:03:40.709Z,45.10
2024-05-09T11:04:40.647Z,45.05
2024-05-09T11:05:40.589Z,45.52
2024-05-09T11:06:40.607Z,45.98
2024-05-09T11:07:40.390Z,45.67
2024-05-09T11:08:40.346Z,45.26
2024-05-09T11:09:40.317Z,44.60
2024-05-09T11:10:40.353Z,44.06
2024-05-09T11:11:40.293Z,43.71
2024-05-09T11:12:40.194Z,44.47
2024-05-09T11:13:40.149Z,43.37
2024-05-09T11:14:40.111Z,42.86
2024-05-09T11:15:40.106Z,43.38
2024-05-09T11:16:40.049Z,42.98
2024-05-09T11:17:40.068Z,41.60
2024-05-09T11:18:40.034Z,41.36
2024-05-09T11:19:39.969Z,42.30
2024-05-09T11:20:39.975Z,42.10
2024-05-09T11:21:39.867Z,42.34
2024-05-09T11:22:39.756Z,43.24
2024-05-09T11:23:39.722Z,44.02
2024-05-09T11:24:39.699Z,44.66
2024-05-09T11:25:39.671Z,44.50
2024-05-09T11:26:39.622Z,44.37
2024-05-09T11:27:39.684Z,44.13
2024-05-09T11:28:39.557Z,43.86
2024-05-09T11:29:39.526Z,43.45
2024-05-09T11:30:39.508Z,44.76
2024-05-09T11:31:39.523Z,44.38
2024-05-09T11:32:39.491Z,44.74
2024-05-09T11:33:39.606Z,45.21
2024-05-09T11:34:39.345Z,45.44
2024-05-09T11:35:39.330Z,46.44
2024-05-09T11:36:39.326Z,46.29
2024-05-09T11:37:39.208Z,45.30
2024-05-09T11:38:39.230Z,45.63
2024-05-09T11:39:39.244Z,46.31
2024-05-09T11:40:39.240Z,46.77
2024-05-09T11:41:39.132Z,45.49
2024-05-09T11:42:39.120Z,45.10
2024-05-09T11:43:39.071Z,44.37
2024-05-09T11:44:39.038Z,44.41
2024-05-09T11:45:39.067Z,43.60
2024-05-09T11:46:38.977Z,44.64
2024-05-09T11:47:39.054Z,45.78
2024-05-09T11:48:39.058Z,44.39
2024-05-09T11:49:38.942Z,42.86
2024-05-09T11:50:38.930Z,42.68
2024-05-09T11:51:38.896Z,42.55
2024-05-09T11:52:38.830Z,42.55
2024-05-09T11:53:38.789Z,41.74
2024-05-09T11:54:38.809Z,43.50
2024-05-09T11:55:38.736Z,43.78
2024-05-09T11:56:38.694Z,43.44
2024-05-09T11:57:38.656Z,43.62
2024-05-09T11:58:38.585Z,43.38
2024-05-09T11:59:38.546Z,42.18
2024-05-09T12:00:38.524Z,40.82
2024-05-09T12:01:38.550Z,42.06
2024-05-09T12:02:38.506Z,43.44
2024-05-09T12:03:38.563Z,44.13
2024-05-09T12:04:38.533Z,42.94
2024-05-09T12:05:38.589Z,43.67
2024-05-09T12:06:38.330Z,44.22
2024-05-09T12:07:38.294Z,44.41
2024-05-09T12:08:38.258Z,43.66
2024-05-09T12:09:38.256Z,44.69
2024-05-09T12:10:38.451Z,44.22
2024-05-09T12:11:38.228Z,43.69
2024-05-09T12:12:38.156Z,43.63
2024-05-09T12:13:38.100Z,43.79
2024-05-09T12:14:38.063Z,44.14
2024-05-09T12:15:38.931Z,43.58
2024-05-09T12:16:38.022Z,42.86
2024-05-09T12:17:38.053Z,42.79
2024-05-09T12:18:38.138Z,42.19
2024-05-09T12:19:38.003Z,41.55
2024-05-09T12:20:39.773Z,41.61
2024-05-09T12:21:37.908Z,42.01
2024-05-09T12:22:37.847Z,42.62
2024-05-09T12:23:37.823Z,43.16
2024-05-09T12:24:37.834Z,42.99
2024-05-09T12:25:37.728Z,42.98
2024-05-09T12:26:37.667Z,43.40
2024-05-09T12:27:37.667Z,43.63
2024-05-09T12:28:37.555Z,43.01
2024-05-09T12:29:38.797Z,44.19
2024-05-09T12:30:39.975Z,44.08
2024-05-09T12:31:37.442Z,42.54
2024-05-09T12:32:37.409Z,43.40
2024-05-09T12:33:37.329Z,44.84
2024-05-09T12:34:37.198Z,42.83
2024-05-09T12:35:37.086Z,42.38
2024-05-09T12:36:37.036Z,42.69
2024-05-09T12:37:36.880Z,41.40
2024-05-09T12:38:36.817Z,40.54
2024-05-09T12:39:36.817Z,41.45
2024-05-09T12:40:38.868Z,41.66
2024-05-09T12:41:36.543Z,41.42
2024-05-09T12:42:36.536Z,39.87
2024-05-09T12:43:36.478Z,39.74
2024-05-09T12:44:36.280Z,39.73
2024-05-09T12:45:36.356Z,40.48
2024-05-09T12:46:36.221Z,40.83
2024-05-09T12:47:36.084Z,39.20
2024-05-09T12:48:36.074Z,39.55
2024-05-09T12:49:36.020Z,39.07
2024-05-09T12:50:35.904Z,39.42
2024-05-09T12:51:35.679Z,40.23
2024-05-09T12:52:35.547Z,39.05
2024-05-09T12:53:35.411Z,39.39
2024-05-09T12:54:35.354Z,39.72
2024-05-09T12:55:43.938Z,38.65
2024-05-09T12:56:36.182Z,38.69
2024-05-09T12:57:35.088Z,39.36